PROFILE

 METAR AND TAF INFORMATION
ADDS - METARS form results

(0609 UTC 22 September 2019)
http://aviationweather.gov/metar/data/
 
LCLK 220600Z 02014KT CAVOK 27/15 Q1014 NOSIG
LCLK 220530Z 01012KT CAVOK 27/16 Q1014 NOSIG
TAF LCLK 220530Z 2206/2306 35007KT 9999 FEW030 BECMG 2206/2210 06016KT BECMG 2215/2219 32009KT 

 AIRPORT MAP

 RUNWAY INFORMATION
Runway 04 Runway length 9776 ft Runway width 148 ft
Runway elevation 11 ft Runway displaced threshold 0 ft Runway heading 45
Runway 22 Runway length 9776 ft Runway width 148 ft
Runway elevation 6 ft Runway displaced threshold 575 ft Runway heading 225

 AIRPORT FREQUENCIES
Type APP Name APP Frequency 121.2 MHZ
Type ATIS Name ATIS Frequency 126.55 MHZ
Type TWR Name TWR Frequency 119.4 MHZ

 AIRPORT NEAR NAVIGATION AIDS
Type VOR-DME Name Larnaca Frequency 112800 KHZ
Type NDB Name Larnaca Frequency 432 KHZ